Terminal Aerodrome Forecast
Issued by NWS Riverton, WY

Home | Current Version | Previous Version | Text Only | Print | Product List | Glossary On
Versions: 1 2 3 4 5 6 7 8 9 10 11 12 13 14 15 16
556
FTUS45 KRIW 201725
TAFRIW
TAF
KRIW 201725Z 2018/2118 02010G20KT P6SM BKN110
     FM202000 03014KT P6SM VCSH OVC050
     FM210600 04008KT P6SM VCSH SCT009 OVC050
     FM210800 VRB05KT P6SM VCFG SCT003 BKN050
     FM211200 29006KT P6SM SKC=

USA.gov is the U.S. government's official web portal to all federal, state and local government web resources and services.